createdAt,value
2023-04-16T00:01:16.696Z,102252.53
2023-04-16T00:03:43.420Z,102197.84
2023-04-16T00:06:11.618Z,102199.50
2023-04-16T00:08:38.349Z,102227.94
2023-04-16T00:11:05.966Z,102242.75
2023-04-16T00:13:32.396Z,102218.53
2023-04-16T00:15:59.184Z,102251.47
2023-04-16T00:18:26.273Z,102227.72
2023-04-16T00:20:53.510Z,102255.94
2023-04-16T00:23:20.133Z,102251.13
2023-04-16T00:25:46.688Z,102250.06
2023-04-16T00:28:13.171Z,102258.28
2023-04-16T00:30:39.985Z,102256.78
2023-04-16T00:33:06.690Z,102262.88
2023-04-16T00:35:33.129Z,102259.00
2023-04-16T00:37:59.570Z,102261.00
2023-04-16T00:40:29.934Z,102272.09
2023-04-16T00:42:56.431Z,102267.47
2023-04-16T00:45:22.887Z,102249.38
2023-04-16T00:47:49.910Z,102260.69
2023-04-16T00:50:17.581Z,102188.56
2023-04-16T00:52:44.101Z,102252.06
2023-04-16T00:55:13.321Z,102233.72
2023-04-16T00:57:39.889Z,102261.69
2023-04-16T01:00:06.952Z,102195.41
2023-04-16T01:02:34.566Z,102268.06
2023-04-16T01:05:01.963Z,102190.47
2023-04-16T01:07:28.545Z,102219.16
2023-04-16T01:09:55.184Z,102231.00
2023-04-16T01:12:21.668Z,102189.53
2023-04-16T01:14:48.388Z,102237.25
2023-04-16T01:17:15.052Z,102250.63
2023-04-16T01:19:42.524Z,102183.63
2023-04-16T01:22:09.045Z,102222.78
2023-04-16T01:24:36.446Z,102229.13
2023-04-16T01:27:02.946Z,102229.00
2023-04-16T01:29:29.446Z,102244.75
2023-04-16T01:31:56.189Z,102237.94
2023-04-16T01:34:22.996Z,102244.88
2023-04-16T01:36:49.495Z,102238.88
2023-04-16T01:39:16.481Z,102244.66
2023-04-16T01:41:43.636Z,102228.88
2023-04-16T01:44:10.249Z,102239.34
2023-04-16T01:46:37.751Z,102258.28
2023-04-16T01:49:04.916Z,102268.50
2023-04-16T01:51:32.125Z,102252.41
2023-04-16T01:53:58.956Z,102267.22
2023-04-16T01:56:25.739Z,102233.47
2023-04-16T01:58:52.883Z,102255.47
2023-04-16T02:01:19.466Z,102233.69
2023-04-16T02:03:46.298Z,102234.03
2023-04-16T02:06:12.995Z,102260.66
2023-04-16T02:08:39.537Z,102236.53
2023-04-16T02:11:05.950Z,102260.28
2023-04-16T02:13:32.403Z,102248.50
2023-04-16T02:15:59.295Z,102244.16
2023-04-16T02:18:25.846Z,102201.69
2023-04-16T02:20:52.464Z,102266.25
2023-04-16T02:23:18.898Z,102206.19
2023-04-16T02:25:46.834Z,102273.53
2023-04-16T02:28:15.430Z,102279.88
2023-04-16T02:30:42.293Z,102272.50
2023-04-16T02:33:10.443Z,102232.16
2023-04-16T02:35:37.928Z,102276.00
2023-04-16T02:38:05.297Z,102237.06
2023-04-16T02:40:32.097Z,102226.47
2023-04-16T02:42:58.602Z,102260.47
2023-04-16T02:45:25.336Z,102264.94
2023-04-16T02:47:51.975Z,102266.22
2023-04-16T02:50:18.773Z,102257.53
2023-04-16T02:52:45.366Z,102263.28
2023-04-16T02:55:11.950Z,102264.84
2023-04-16T02:57:38.436Z,102273.31
2023-04-16T03:00:05.441Z,102267.31
2023-04-16T03:02:31.986Z,102288.22
2023-04-16T03:04:58.668Z,102264.97
2023-04-16T03:07:25.184Z,102280.63
2023-04-16T03:09:51.786Z,102273.81
2023-04-16T03:12:18.251Z,102284.38
2023-04-16T03:14:44.626Z,102289.44
2023-04-16T03:17:11.495Z,102289.19
2023-04-16T03:19:37.891Z,102275.13
2023-04-16T03:22:04.640Z,102300.19
2023-04-16T03:24:31.128Z,102296.38
2023-04-16T03:26:58.379Z,102287.09
2023-04-16T03:29:26.722Z,102292.28
2023-04-16T03:31:53.198Z,102297.13
2023-04-16T03:34:19.756Z,102288.06
2023-04-16T03:36:46.329Z,102291.13
2023-04-16T03:39:12.743Z,102285.47
2023-04-16T03:41:39.157Z,102281.72
2023-04-16T03:44:05.754Z,102295.25
2023-04-16T03:46:32.327Z,102300.44
2023-04-16T03:48:58.830Z,102299.13
2023-04-16T03:51:26.397Z,102283.84
2023-04-16T03:53:52.887Z,102295.84
2023-04-16T03:56:19.383Z,102312.94
2023-04-16T03:58:45.949Z,102293.03
2023-04-16T04:01:12.397Z,102298.56
2023-04-16T04:03:38.929Z,102301.75
2023-04-16T04:06:09.029Z,102302.56
2023-04-16T04:08:35.558Z,102316.34
2023-04-16T04:11:01.923Z,102301.75
2023-04-16T04:13:28.369Z,102299.97
2023-04-16T04:15:54.913Z,102301.38
2023-04-16T04:18:21.351Z,102302.56
2023-04-16T04:20:47.792Z,102297.16
2023-04-16T04:23:14.232Z,102272.09
2023-04-16T04:25:40.781Z,102279.97
2023-04-16T04:28:07.232Z,102250.69
2023-04-16T04:30:35.674Z,102266.19
2023-04-16T04:33:02.247Z,102239.88
2023-04-16T04:35:28.745Z,102249.84
2023-04-16T04:37:55.196Z,102288.69
2023-04-16T04:40:21.625Z,102318.69
2023-04-16T04:42:48.208Z,102309.41
2023-04-16T04:45:14.703Z,102295.28
2023-04-16T04:47:41.188Z,102332.47
2023-04-16T04:50:08.141Z,102320.34
2023-04-16T04:52:34.525Z,102323.53
2023-04-16T04:55:01.241Z,102321.53
2023-04-16T04:57:27.694Z,102298.47
2023-04-16T04:59:54.131Z,102321.06
2023-04-16T05:02:20.774Z,102332.94
2023-04-16T05:04:47.311Z,102331.63
2023-04-16T05:07:13.802Z,102324.44
2023-04-16T05:09:42.624Z,102337.06
2023-04-16T05:12:09.151Z,102267.53
2023-04-16T05:14:36.365Z,102276.34
2023-04-16T05:17:03.032Z,102335.06
2023-04-16T05:19:32.623Z,102315.97
2023-04-16T05:21:59.715Z,102324.44
2023-04-16T05:24:29.288Z,102269.25
2023-04-16T05:26:57.316Z,102272.31
2023-04-16T05:29:24.049Z,102258.91
2023-04-16T05:31:50.574Z,102344.59
2023-04-16T05:34:17.092Z,102279.38
2023-04-16T05:36:43.529Z,102316.94
2023-04-16T05:39:10.815Z,102305.63
2023-04-16T05:41:37.545Z,102316.09
2023-04-16T05:44:04.181Z,102327.53
2023-04-16T05:46:31.381Z,102314.09
2023-04-16T05:48:57.886Z,102343.75
2023-04-16T05:51:26.105Z,102339.53
2023-04-16T05:53:52.516Z,102304.94
2023-04-16T05:56:19.209Z,102286.34
2023-04-16T05:58:45.701Z,102291.63
2023-04-16T06:01:12.343Z,102308.44
2023-04-16T06:03:38.952Z,102304.47
2023-04-16T06:06:05.721Z,102356.13
2023-04-16T06:08:32.238Z,102366.34
2023-04-16T06:10:58.680Z,102365.88
2023-04-16T06:13:25.169Z,102373.31
2023-04-16T06:15:51.640Z,102370.47
2023-04-16T06:18:18.071Z,102371.78
2023-04-16T06:20:44.513Z,102372.13
2023-04-16T06:23:11.153Z,102362.47
2023-04-16T06:25:37.551Z,102377.44
2023-04-16T06:28:04.058Z,102375.75
2023-04-16T06:30:30.624Z,102378.13
2023-04-16T06:32:57.083Z,102379.63
2023-04-16T06:35:23.627Z,102389.09
2023-04-16T06:37:50.121Z,102382.38
2023-04-16T06:40:16.719Z,102393.56
2023-04-16T06:42:44.883Z,102396.03
2023-04-16T06:45:12.357Z,102391.31
2023-04-16T06:47:38.799Z,102394.13
2023-04-16T06:50:06.034Z,102403.69
2023-04-16T06:52:32.527Z,102396.16
2023-04-16T06:54:58.987Z,102403.66
2023-04-16T06:57:25.490Z,102383.78
2023-04-16T06:59:51.937Z,102403.31
2023-04-16T07:02:18.498Z,102402.00
2023-04-16T07:04:44.985Z,102406.38
2023-04-16T07:07:11.411Z,102420.16
2023-04-16T07:09:37.875Z,102411.56
2023-04-16T07:12:04.411Z,102415.44
2023-04-16T07:14:31.114Z,102414.75
2023-04-16T07:16:57.738Z,102414.75
2023-04-16T07:19:24.413Z,102417.22
2023-04-16T07:21:50.800Z,102420.97
2023-04-16T07:24:17.392Z,102432.75
2023-04-16T07:26:43.777Z,102420.97
2023-04-16T07:29:10.406Z,102421.44
2023-04-16T07:31:37.056Z,102424.41
2023-04-16T07:34:03.624Z,102421.56
2023-04-16T07:36:30.042Z,102430.75
2023-04-16T07:38:56.509Z,102424.72
2023-04-16T07:41:22.992Z,102428.28
2023-04-16T07:43:49.443Z,102433.22
2023-04-16T07:46:16.250Z,102429.09
2023-04-16T07:48:43.085Z,102421.91
2023-04-16T07:51:09.475Z,102437.81
2023-04-16T07:53:36.049Z,102443.13
2023-04-16T07:56:02.484Z,102450.56
2023-04-16T07:58:28.982Z,102456.31
2023-04-16T08:00:55.548Z,102452.22
2023-04-16T08:03:22.249Z,102457.50
2023-04-16T08:05:48.832Z,102451.25
2023-04-16T08:08:15.585Z,102459.97
2023-04-16T08:10:42.151Z,102462.31
2023-04-16T08:13:08.580Z,102459.72
2023-04-16T08:15:35.121Z,102465.13
2023-04-16T08:18:01.665Z,102469.38
2023-04-16T08:20:28.260Z,102450.56
2023-04-16T08:22:54.894Z,102472.56
2023-04-16T08:25:23.552Z,102470.19
2023-04-16T08:27:50.232Z,102470.41
2023-04-16T08:30:16.719Z,102474.66
2023-04-16T08:32:43.510Z,102480.69
2023-04-16T08:35:10.010Z,102466.75
2023-04-16T08:37:36.466Z,102479.59
2023-04-16T08:40:03.486Z,102484.88
2023-04-16T08:42:32.875Z,102483.81
2023-04-16T08:45:17.891Z,102481.56
2023-04-16T08:47:50.486Z,102482.63
2023-04-16T08:50:19.408Z,102496.50
2023-04-16T08:52:52.283Z,102496.69
2023-04-16T08:55:23.468Z,102494.56
2023-04-16T08:57:56.233Z,102494.91
2023-04-16T09:00:23.822Z,102497.16
2023-04-16T09:02:51.577Z,102500.09
2023-04-16T09:05:19.057Z,102502.97
2023-04-16T09:07:46.535Z,102506.03
2023-04-16T09:10:14.760Z,102503.31
2023-04-16T09:12:42.914Z,102505.47
2023-04-16T09:15:13.313Z,102502.97
2023-04-16T09:17:40.191Z,102509.38
2023-04-16T09:20:11.213Z,102515.03
2023-04-16T09:22:38.344Z,102513.94
2023-04-16T09:25:05.080Z,102508.50
2023-04-16T09:27:31.950Z,102510.00
2023-04-16T09:29:58.634Z,102518.78
2023-04-16T09:32:28.905Z,102522.25
2023-04-16T09:35:00.094Z,102520.47
2023-04-16T09:37:29.576Z,102524.38
2023-04-16T09:40:00.804Z,102523.19
2023-04-16T09:42:34.317Z,102528.94
2023-04-16T09:45:03.354Z,102535.28
2023-04-16T09:47:45.273Z,102540.50
2023-04-16T09:50:18.167Z,102544.50
2023-04-16T09:52:47.986Z,102523.00
2023-04-16T09:55:14.490Z,102538.75
2023-04-16T09:57:41.081Z,102544.06
2023-04-16T10:00:09.500Z,102537.31
2023-04-16T10:02:39.170Z,102533.91
2023-04-16T10:05:06.327Z,102544.97
2023-04-16T10:07:37.160Z,102537.94
2023-04-16T10:10:04.387Z,102546.06
2023-04-16T10:12:32.622Z,102539.91
2023-04-16T10:14:59.082Z,102547.22
2023-04-16T10:17:26.696Z,102549.06
2023-04-16T10:19:54.607Z,102544.06
2023-04-16T10:22:21.377Z,102541.09
2023-04-16T10:24:48.288Z,102538.63
2023-04-16T10:27:14.741Z,102542.88
2023-04-16T10:29:41.356Z,102548.59
2023-04-16T10:32:08.040Z,102551.47
2023-04-16T10:34:36.408Z,102543.03
2023-04-16T10:37:02.828Z,102552.09
2023-04-16T10:39:34.382Z,102555.09
2023-04-16T10:42:11.924Z,102552.28
2023-04-16T10:44:41.508Z,102551.03
2023-04-16T10:47:12.325Z,102554.91
2023-04-16T10:49:38.979Z,102556.03
2023-04-16T10:52:13.690Z,102545.44
2023-04-16T10:54:41.067Z,102544.81
2023-04-16T10:57:09.682Z,102555.56
2023-04-16T10:59:37.421Z,102558.06
2023-04-16T11:02:09.682Z,102558.69
2023-04-16T11:04:38.186Z,102558.53
2023-04-16T11:07:07.456Z,102566.50
2023-04-16T11:09:57.553Z,102557.13
2023-04-16T11:12:38.778Z,102557.28
2023-04-16T11:15:06.314Z,102564.41
2023-04-16T11:17:37.638Z,102563.06
2023-04-16T11:20:17.779Z,102550.63
2023-04-16T11:22:51.175Z,102551.91
2023-04-16T11:25:24.136Z,102550.00
2023-04-16T11:27:53.858Z,102544.13
2023-04-16T11:30:33.255Z,102562.31
2023-04-16T11:33:08.496Z,102560.06
2023-04-16T11:35:35.090Z,102566.13
2023-04-16T11:38:01.602Z,102560.53
2023-04-16T11:40:34.003Z,102557.25
2023-04-16T11:43:18.615Z,102567.78
2023-04-16T11:46:02.692Z,102563.44
2023-04-16T11:48:55.395Z,102564.94
2023-04-16T11:51:23.125Z,102570.28
2023-04-16T11:53:53.475Z,102562.53
2023-04-16T11:56:30.022Z,102564.41
2023-04-16T11:59:12.582Z,102562.91
2023-04-16T12:01:40.834Z,102571.28
2023-04-16T12:04:08.106Z,102570.47
2023-04-16T12:06:34.793Z,102575.44
2023-04-16T12:09:25.030Z,102576.16
2023-04-16T12:11:51.542Z,102582.00
2023-04-16T12:14:18.049Z,102581.69
2023-04-16T12:16:44.546Z,102570.91
2023-04-16T12:19:12.955Z,102571.22
2023-04-16T12:21:40.344Z,102576.28
2023-04-16T12:24:08.200Z,102578.84
2023-04-16T12:26:42.577Z,102575.31
2023-04-16T12:29:20.507Z,102584.88
2023-04-16T12:31:48.060Z,102581.31
2023-04-16T12:34:17.494Z,102574.19
2023-04-16T12:36:45.824Z,102583.94
2023-04-16T12:39:13.058Z,102581.50
2023-04-16T12:41:41.738Z,102578.09
2023-04-16T12:44:12.463Z,102580.97
2023-04-16T12:46:40.269Z,102572.63
2023-04-16T12:49:07.539Z,102571.41
2023-04-16T12:51:34.892Z,102571.94
2023-04-16T12:54:02.252Z,102578.22
2023-04-16T12:56:28.841Z,102583.06
2023-04-16T12:58:56.609Z,102581.56
2023-04-16T13:01:23.549Z,102592.00
2023-04-16T13:03:50.142Z,102569.50
2023-04-16T13:06:17.014Z,102585.69
2023-04-16T13:08:44.533Z,102597.72
2023-04-16T13:11:11.152Z,102592.28
2023-04-16T13:13:37.609Z,102588.56
2023-04-16T13:16:06.515Z,102592.09
2023-04-16T13:18:33.283Z,102592.25
2023-04-16T13:20:59.843Z,102591.81
2023-04-16T13:23:27.013Z,102589.63
2023-04-16T13:25:53.550Z,102581.09
2023-04-16T13:28:20.072Z,102586.63
2023-04-16T13:30:49.429Z,102582.34
2023-04-16T13:33:15.941Z,102590.28
2023-04-16T13:35:42.504Z,102589.88
2023-04-16T13:38:09.294Z,102587.41
2023-04-16T13:40:35.728Z,102585.34
2023-04-16T13:43:02.195Z,102589.63
2023-04-16T13:45:28.688Z,102587.00
2023-04-16T13:47:56.069Z,102576.34
2023-04-16T13:50:23.044Z,102580.16
2023-04-16T13:52:49.448Z,102579.88
2023-04-16T13:55:19.036Z,102576.31
2023-04-16T13:57:47.410Z,102576.88
2023-04-16T14:00:15.350Z,102575.78
2023-04-16T14:02:42.779Z,102569.06
2023-04-16T14:05:09.628Z,102578.28
2023-04-16T14:07:37.204Z,102582.13
2023-04-16T14:10:03.960Z,102583.34
2023-04-16T14:12:31.597Z,102580.16
2023-04-16T14:14:58.256Z,102582.78
2023-04-16T14:17:24.738Z,102581.13
2023-04-16T14:19:51.279Z,102581.53
2023-04-16T14:22:18.242Z,102578.25
2023-04-16T14:24:44.621Z,102583.03
2023-04-16T14:27:11.267Z,102580.84
2023-04-16T14:29:37.890Z,102584.53
2023-04-16T14:32:04.734Z,102570.44
2023-04-16T14:34:31.384Z,102573.16
2023-04-16T14:36:57.783Z,102578.38
2023-04-16T14:39:24.844Z,102577.16
2023-04-16T14:41:51.293Z,102586.91
2023-04-16T14:44:17.707Z,102577.06
2023-04-16T14:46:44.732Z,102580.88
2023-04-16T14:49:12.213Z,102586.22
2023-04-16T14:51:39.041Z,102582.38
2023-04-16T14:54:05.684Z,102584.28
2023-04-16T14:56:32.165Z,102583.16
2023-04-16T14:58:58.649Z,102578.50
2023-04-16T15:01:25.181Z,102582.47
2023-04-16T15:03:51.798Z,102577.97
2023-04-16T15:06:19.032Z,102579.19
2023-04-16T15:08:45.787Z,102578.38
2023-04-16T15:11:12.229Z,102574.53
2023-04-16T15:13:39.023Z,102568.09
2023-04-16T15:16:05.522Z,102570.72
2023-04-16T15:18:32.695Z,102569.78
2023-04-16T15:20:59.353Z,102568.25
2023-04-16T15:23:25.882Z,102559.06
2023-04-16T15:25:52.260Z,102576.63
2023-04-16T15:28:18.745Z,102571.25
2023-04-16T15:30:45.340Z,102571.41
2023-04-16T15:33:11.943Z,102571.97
2023-04-16T15:35:41.357Z,102577.88
2023-04-16T15:38:08.182Z,102574.25
2023-04-16T15:40:35.520Z,102584.69
2023-04-16T15:43:01.961Z,102568.81
2023-04-16T15:45:28.459Z,102580.03
2023-04-16T15:47:55.975Z,102574.81
2023-04-16T15:50:22.717Z,102572.22
2023-04-16T15:52:49.270Z,102574.00
2023-04-16T15:55:16.701Z,102582.47
2023-04-16T15:57:43.137Z,102574.13
2023-04-16T16:00:16.119Z,102577.97
2023-04-16T16:02:47.042Z,102567.53
2023-04-16T16:05:14.259Z,102571.13
2023-04-16T16:07:41.367Z,102553.41
2023-04-16T16:10:09.232Z,102570.53
2023-04-16T16:12:35.972Z,102569.56
2023-04-16T16:15:02.422Z,102566.69
2023-04-16T16:17:29.472Z,102562.03
2023-04-16T16:19:57.608Z,102565.06
2023-04-16T16:22:24.434Z,102566.69
2023-04-16T16:24:51.423Z,102567.81
2023-04-16T16:27:21.386Z,102560.69
2023-04-16T16:29:48.004Z,102568.34
2023-04-16T16:32:14.661Z,102566.84
2023-04-16T16:34:41.138Z,102570.41
2023-04-16T16:37:07.677Z,102551.06
2023-04-16T16:39:35.214Z,102569.44
2023-04-16T16:42:02.479Z,102573.25
2023-04-16T16:44:29.047Z,102576.00
2023-04-16T16:46:55.473Z,102572.69
2023-04-16T16:49:21.862Z,102580.19
2023-04-16T16:51:48.579Z,102576.16
2023-04-16T16:54:15.429Z,102576.38
2023-04-16T16:56:41.962Z,102580.59
2023-04-16T16:59:09.001Z,102585.41
2023-04-16T17:01:35.837Z,102581.38
2023-04-16T17:04:02.646Z,102583.28
2023-04-16T17:06:29.290Z,102586.38
2023-04-16T17:08:55.837Z,102589.34
2023-04-16T17:11:22.248Z,102588.19
2023-04-16T17:13:48.775Z,102597.63
2023-04-16T17:16:17.563Z,102592.44
2023-04-16T17:18:44.196Z,102600.72
2023-04-16T17:21:10.769Z,102595.34
2023-04-16T17:23:37.971Z,102598.75
2023-04-16T17:26:05.934Z,102597.94
2023-04-16T17:28:32.403Z,102598.19
2023-04-16T17:30:59.501Z,102598.44
2023-04-16T17:33:26.034Z,102602.00
2023-04-16T17:35:52.521Z,102606.09
2023-04-16T17:38:18.993Z,102607.06
2023-04-16T17:40:45.657Z,102608.72
2023-04-16T17:43:12.107Z,102611.94
2023-04-16T17:45:38.593Z,102610.16
2023-04-16T17:48:05.610Z,102614.03
2023-04-16T17:50:32.103Z,102621.06
2023-04-16T17:53:03.484Z,102623.66
2023-04-16T17:55:30.988Z,102617.88
2023-04-16T17:57:57.448Z,102621.31
2023-04-16T18:00:24.018Z,102628.03
2023-04-16T18:02:52.326Z,102633.72
2023-04-16T18:05:21.680Z,102641.97
2023-04-16T18:07:48.339Z,102628.03
2023-04-16T18:10:14.872Z,102627.94
2023-04-16T18:12:41.384Z,102644.34
2023-04-16T18:15:08.428Z,102643.22
2023-04-16T18:17:35.095Z,102644.84
2023-04-16T18:20:01.736Z,102646.78
2023-04-16T18:22:28.525Z,102640.41
2023-04-16T18:24:55.324Z,102645.72
2023-04-16T18:27:21.954Z,102649.63
2023-04-16T18:29:49.363Z,102652.81
2023-04-16T18:32:16.387Z,102648.25
2023-04-16T18:34:43.018Z,102655.41
2023-04-16T18:37:09.579Z,102662.03
2023-04-16T18:39:36.933Z,102664.13
2023-04-16T18:42:03.959Z,102661.56
2023-04-16T18:44:30.510Z,102670.66
2023-04-16T18:46:57.112Z,102663.31
2023-04-16T18:49:23.797Z,102660.72
2023-04-16T18:51:50.296Z,102667.09
2023-04-16T18:54:17.020Z,102674.41
2023-04-16T18:56:43.479Z,102670.38
2023-04-16T18:59:10.127Z,102664.72
2023-04-16T19:01:36.823Z,102670.88
2023-04-16T19:04:03.486Z,102679.59
2023-04-16T19:06:30.047Z,102681.38
2023-04-16T19:08:56.558Z,102681.63
2023-04-16T19:11:22.984Z,102643.03
2023-04-16T19:13:49.430Z,102684.31
2023-04-16T19:16:16.913Z,102680.56
2023-04-16T19:18:43.477Z,102692.69
2023-04-16T19:21:10.899Z,102687.03
2023-04-16T19:23:37.482Z,102695.31
2023-04-16T19:26:04.065Z,102687.75
2023-04-16T19:28:30.702Z,102686.13
2023-04-16T19:30:57.234Z,102689.91
2023-04-16T19:33:23.732Z,102687.53
2023-04-16T19:35:50.371Z,102697.09
2023-04-16T19:38:16.950Z,102698.75
2023-04-16T19:40:48.211Z,102693.34
2023-04-16T19:43:14.963Z,102697.06
2023-04-16T19:45:53.263Z,102696.63
2023-04-16T19:48:20.718Z,102703.81
2023-04-16T19:50:47.866Z,102700.50
2023-04-16T19:53:14.450Z,102700.84
2023-04-16T19:55:41.302Z,102702.75
2023-04-16T19:58:08.433Z,102698.38
2023-04-16T20:00:36.848Z,102694.50
2023-04-16T20:03:03.982Z,102692.59
2023-04-16T20:05:30.631Z,102682.59
2023-04-16T20:07:57.068Z,102693.06
2023-04-16T20:10:24.136Z,102695.78
2023-04-16T20:12:50.896Z,102690.72
2023-04-16T20:15:17.861Z,102703.09
2023-04-16T20:17:44.343Z,102703.22
2023-04-16T20:20:11.367Z,102704.88
2023-04-16T20:22:38.324Z,102692.72
2023-04-16T20:25:05.595Z,102702.03
2023-04-16T20:27:32.667Z,102705.56
2023-04-16T20:29:59.697Z,102698.16
2023-04-16T20:32:27.633Z,102700.75
2023-04-16T20:34:55.240Z,102694.59
2023-04-16T20:37:21.714Z,102683.28
2023-04-16T20:39:50.029Z,102700.03
2023-04-16T20:42:16.805Z,102693.91
2023-04-16T20:44:50.074Z,102688.13
2023-04-16T20:47:17.232Z,102680.81
2023-04-16T20:49:49.342Z,102686.81
2023-04-16T20:52:16.558Z,102689.63
2023-04-16T20:54:42.983Z,102681.72
2023-04-16T20:57:09.493Z,102677.25
2023-04-16T20:59:38.810Z,102658.59
2023-04-16T21:02:05.813Z,102687.78
2023-04-16T21:04:32.334Z,102686.22
2023-04-16T21:06:58.817Z,102684.09
2023-04-16T21:09:25.365Z,102676.44
2023-04-16T21:11:51.796Z,102689.03
2023-04-16T21:14:18.518Z,102684.91
2023-04-16T21:16:44.979Z,102682.91
2023-04-16T21:19:11.663Z,102683.72
2023-04-16T21:21:38.850Z,102674.06
2023-04-16T21:24:05.627Z,102691.16
2023-04-16T21:26:32.065Z,102688.19
2023-04-16T21:28:58.520Z,102687.38
2023-04-16T21:31:25.008Z,102670.06
2023-04-16T21:33:51.445Z,102677.72
2023-04-16T21:36:17.888Z,102689.25
2023-04-16T21:38:44.429Z,102689.84
2023-04-16T21:41:11.291Z,102681.69
2023-04-16T21:43:37.737Z,102685.84
2023-04-16T21:46:04.188Z,102685.31
2023-04-16T21:48:30.596Z,102690.16
2023-04-16T21:50:58.162Z,102685.44
2023-04-16T21:53:25.904Z,102682.50
2023-04-16T21:55:52.406Z,102681.56
2023-04-16T21:58:18.894Z,102684.59
2023-04-16T22:00:45.534Z,102678.81
2023-04-16T22:03:12.400Z,102678.59
2023-04-16T22:05:39.091Z,102686.97
2023-04-16T22:08:20.871Z,102678.81
2023-04-16T22:10:50.369Z,102683.28
2023-04-16T22:13:17.771Z,102680.00
2023-04-16T22:15:44.176Z,102679.09
2023-04-16T22:18:11.456Z,102675.69
2023-04-16T22:20:39.112Z,102682.38
2023-04-16T22:23:06.553Z,102681.31
2023-04-16T22:25:33.404Z,102683.97
2023-04-16T22:28:01.462Z,102671.72
2023-04-16T22:30:28.013Z,102675.00
2023-04-16T22:32:54.537Z,102677.88
2023-04-16T22:35:21.031Z,102678.56
2023-04-16T22:37:47.469Z,102687.28
2023-04-16T22:40:14.923Z,102679.41
2023-04-16T22:42:41.520Z,102680.22
2023-04-16T22:45:08.801Z,102678.81
2023-04-16T22:47:35.295Z,102670.94
2023-04-16T22:50:01.776Z,102663.50
2023-04-16T22:52:28.294Z,102671.75
2023-04-16T22:54:54.725Z,102680.00
2023-04-16T22:57:24.673Z,102675.75
2023-04-16T22:59:51.615Z,102679.44
2023-04-16T23:02:18.480Z,102670.88
2023-04-16T23:04:46.212Z,102677.50
2023-04-16T23:07:12.683Z,102677.88
2023-04-16T23:09:39.126Z,102681.78
2023-04-16T23:12:05.830Z,102680.91
2023-04-16T23:14:32.318Z,102675.22
2023-04-16T23:16:58.699Z,102679.25
2023-04-16T23:19:25.227Z,102675.81
2023-04-16T23:21:51.832Z,102685.44
2023-04-16T23:24:18.236Z,102681.44
2023-04-16T23:26:44.695Z,102689.03
2023-04-16T23:29:11.396Z,102691.91
2023-04-16T23:31:37.988Z,102699.25
2023-04-16T23:34:04.456Z,102699.34
2023-04-16T23:36:31.064Z,102698.31
2023-04-16T23:38:57.531Z,102699.94
2023-04-16T23:41:24.008Z,102693.50
2023-04-16T23:43:50.671Z,102695.06
2023-04-16T23:46:17.157Z,102697.31
2023-04-16T23:48:43.580Z,102690.81
2023-04-16T23:51:09.999Z,102692.47
2023-04-16T23:53:36.759Z,102695.88
2023-04-16T23:56:03.266Z,102691.63
2023-04-16T23:58:29.657Z,102695.88
